createdAt,value
2019-01-09T00:02:13.915Z,2.90
2019-01-09T00:04:58.644Z,3.00
2019-01-09T00:07:44.222Z,3.00
2019-01-09T00:10:29.023Z,2.90
2019-01-09T00:13:14.165Z,3.00
2019-01-09T00:15:58.996Z,3.00
2019-01-09T00:18:44.505Z,2.90
2019-01-09T00:21:29.188Z,3.00
2019-01-09T00:24:14.611Z,3.00
2019-01-09T00:26:59.439Z,3.10
2019-01-09T00:29:44.665Z,3.00
2019-01-09T00:32:29.461Z,3.00
2019-01-09T00:35:14.854Z,3.00
2019-01-09T00:37:59.813Z,2.90
2019-01-09T00:40:44.766Z,2.90
2019-01-09T00:43:29.657Z,3.00
2019-01-09T00:46:14.829Z,3.00
2019-01-09T00:49:00.205Z,2.90
2019-01-09T00:51:44.976Z,2.90
2019-01-09T00:54:29.774Z,2.90
2019-01-09T00:57:14.767Z,3.10
2019-01-09T00:59:59.979Z,2.90
2019-01-09T01:02:45.168Z,2.90
2019-01-09T01:05:56.470Z,2.80
2019-01-09T01:08:41.209Z,2.80
2019-01-09T01:11:26.225Z,2.80
2019-01-09T01:14:11.429Z,2.80
2019-01-09T01:16:56.571Z,2.80
2019-01-09T01:19:41.267Z,2.80
2019-01-09T01:22:26.419Z,2.80
2019-01-09T01:25:11.656Z,2.90
2019-01-09T01:27:56.661Z,2.90
2019-01-09T01:30:41.373Z,2.80
2019-01-09T01:33:26.769Z,2.90
2019-01-09T01:36:11.372Z,2.80
2019-01-09T01:38:56.517Z,2.90
2019-01-09T01:41:41.461Z,2.80
2019-01-09T01:44:26.769Z,2.80
2019-01-09T01:47:12.210Z,2.80
2019-01-09T01:49:57.136Z,2.80
2019-01-09T01:52:41.877Z,2.80
2019-01-09T01:55:37.772Z,2.80
2019-01-09T01:58:23.018Z,2.80
2019-01-09T02:01:08.175Z,2.80
2019-01-09T02:03:53.181Z,2.80
2019-01-09T02:06:38.024Z,2.80
2019-01-09T02:09:23.299Z,2.80
2019-01-09T02:12:07.945Z,2.80
2019-01-09T02:15:19.266Z,2.80
2019-01-09T02:18:04.016Z,2.80
2019-01-09T02:20:49.043Z,2.70
2019-01-09T02:24:00.310Z,2.70
2019-01-09T02:26:44.922Z,2.70
2019-01-09T02:29:29.740Z,2.70
2019-01-09T02:32:40.987Z,2.80
2019-01-09T02:35:26.358Z,2.70
2019-01-09T02:38:11.102Z,2.70
2019-01-09T02:40:56.430Z,2.80
2019-01-09T02:43:41.669Z,2.80
2019-01-09T02:46:26.438Z,2.90
2019-01-09T02:49:11.512Z,2.90
2019-01-09T02:51:56.891Z,2.80
2019-01-09T02:54:41.830Z,2.80
2019-01-09T02:57:26.936Z,2.80
2019-01-09T03:00:12.082Z,2.80
2019-01-09T03:02:57.058Z,2.80
2019-01-09T03:05:42.249Z,2.80
2019-01-09T03:08:14.478Z,2.90
2019-01-09T03:10:59.013Z,2.80
2019-01-09T03:13:44.370Z,2.70
2019-01-09T03:16:29.551Z,2.80
2019-01-09T03:19:14.344Z,2.80
2019-01-09T03:21:59.521Z,2.70
2019-01-09T03:24:44.208Z,2.80
2019-01-09T03:27:29.194Z,2.80
2019-01-09T03:30:14.119Z,2.80
2019-01-09T03:32:59.530Z,2.70
2019-01-09T03:35:44.105Z,2.70
2019-01-09T03:38:29.192Z,2.70
2019-01-09T03:41:14.024Z,2.60
2019-01-09T03:43:59.123Z,2.70
2019-01-09T03:46:44.093Z,2.70
2019-01-09T03:49:29.079Z,2.70
2019-01-09T03:52:14.270Z,2.70
2019-01-09T03:54:59.752Z,2.80
2019-01-09T03:57:44.512Z,2.80
2019-01-09T04:00:29.926Z,2.70
2019-01-09T04:03:02.210Z,2.80
2019-01-09T04:05:47.436Z,2.70
2019-01-09T04:08:32.005Z,2.90
2019-01-09T04:11:17.023Z,2.90
2019-01-09T04:13:51.686Z,2.80
2019-01-09T04:16:43.562Z,2.70
2019-01-09T04:19:28.009Z,2.70
2019-01-09T04:22:13.354Z,2.80
2019-01-09T04:24:58.365Z,2.80
2019-01-09T04:27:43.511Z,2.80
2019-01-09T04:30:28.565Z,2.70
2019-01-09T04:33:13.846Z,2.70
2019-01-09T04:35:58.688Z,2.70
2019-01-09T04:38:44.037Z,2.70
2019-01-09T04:41:35.836Z,2.60
2019-01-09T04:44:21.153Z,2.60
2019-01-09T04:47:06.305Z,2.70
2019-01-09T04:49:51.346Z,2.70
2019-01-09T04:52:36.230Z,2.70
2019-01-09T04:55:21.282Z,2.70
2019-01-09T04:58:06.402Z,2.70
2019-01-09T05:00:38.728Z,2.70
2019-01-09T05:03:23.290Z,2.70
2019-01-09T05:06:08.374Z,2.60
2019-01-09T05:08:53.397Z,2.70
2019-01-09T05:11:38.402Z,2.70
2019-01-09T05:14:23.420Z,2.70
2019-01-09T05:17:08.443Z,2.60
2019-01-09T05:19:53.591Z,2.50
2019-01-09T05:22:38.466Z,2.60
2019-01-09T05:25:23.385Z,2.70
2019-01-09T05:28:08.585Z,2.70
2019-01-09T05:30:53.888Z,2.60
2019-01-09T05:33:38.866Z,2.70
2019-01-09T05:36:23.497Z,2.70
2019-01-09T05:39:08.487Z,2.70
2019-01-09T05:41:53.545Z,2.70
2019-01-09T05:44:38.837Z,2.60
2019-01-09T05:47:11.174Z,2.70
2019-01-09T05:50:03.045Z,2.70
2019-01-09T05:52:54.190Z,2.70
2019-01-09T05:55:39.130Z,2.60
2019-01-09T05:58:24.604Z,2.50
2019-01-09T06:04:01.635Z,2.60
2019-01-09T06:06:53.947Z,2.60
2019-01-09T06:09:39.016Z,2.50
2019-01-09T06:12:23.962Z,2.60
2019-01-09T06:15:09.779Z,2.50
2019-01-09T06:17:55.015Z,2.50
2019-01-09T06:23:44.887Z,2.40
2019-01-09T06:26:29.602Z,2.50
2019-01-09T06:29:14.737Z,2.50
2019-01-09T06:31:59.503Z,2.40
2019-01-09T06:37:49.272Z,2.50
2019-01-09T06:40:34.092Z,2.40
2019-01-09T06:43:19.296Z,2.30
2019-01-09T06:46:04.482Z,2.30
2019-01-09T06:48:49.912Z,2.30
2019-01-09T06:51:22.799Z,2.30
2019-01-09T06:54:14.479Z,2.20
2019-01-09T06:56:59.525Z,2.20
2019-01-09T06:59:44.786Z,2.20
2019-01-09T07:02:29.898Z,2.30
2019-01-09T07:05:14.526Z,2.40
2019-01-09T07:07:59.969Z,2.40
2019-01-09T07:10:32.369Z,2.40
2019-01-09T07:13:05.099Z,2.30
2019-01-09T07:15:37.216Z,2.20
2019-01-09T07:18:09.309Z,2.30
2019-01-09T07:20:41.805Z,2.30
2019-01-09T07:23:14.171Z,2.30
2019-01-09T07:25:46.664Z,2.10
2019-01-09T07:28:19.065Z,2.10
2019-01-09T07:30:51.334Z,2.10
2019-01-09T07:33:23.325Z,2.20
2019-01-09T07:35:55.629Z,2.30
2019-01-09T07:38:27.695Z,2.30
2019-01-09T07:41:00.229Z,2.30
2019-01-09T07:43:32.408Z,2.30
2019-01-09T07:46:04.789Z,2.30
2019-01-09T07:48:36.874Z,2.20
2019-01-09T07:51:08.918Z,2.30
2019-01-09T07:53:41.074Z,2.30
2019-01-09T07:56:13.146Z,2.30
2019-01-09T07:58:45.676Z,2.20
2019-01-09T08:01:17.763Z,2.20
2019-01-09T08:03:49.814Z,2.30
2019-01-09T08:06:22.163Z,2.30
2019-01-09T08:08:54.554Z,2.30
2019-01-09T08:13:59.485Z,2.40
2019-01-09T08:16:32.080Z,2.40
2019-01-09T08:19:04.546Z,2.40
2019-01-09T08:21:37.061Z,2.30
2019-01-09T08:24:13.321Z,2.30
2019-01-09T08:26:46.421Z,2.30
2019-01-09T08:29:18.649Z,2.30
2019-01-09T08:31:50.894Z,2.40
2019-01-09T08:34:23.268Z,2.30
2019-01-09T08:36:56.004Z,2.30
2019-01-09T08:39:28.798Z,2.30
2019-01-09T08:42:01.041Z,2.40
2019-01-09T08:44:33.441Z,2.50
2019-01-09T08:47:05.642Z,2.50
2019-01-09T08:49:37.945Z,2.50
2019-01-09T08:52:10.317Z,2.50
2019-01-09T08:54:42.617Z,2.30
2019-01-09T08:57:15.333Z,2.40
2019-01-09T08:59:47.345Z,2.40
2019-01-09T09:02:24.255Z,2.40
2019-01-09T09:04:56.763Z,2.40
2019-01-09T09:07:30.276Z,2.40
2019-01-09T09:10:03.013Z,2.40
2019-01-09T09:12:39.994Z,2.30
2019-01-09T09:15:13.186Z,2.30
2019-01-09T09:17:45.852Z,2.50
2019-01-09T09:20:18.109Z,2.60
2019-01-09T09:22:51.456Z,2.50
2019-01-09T09:25:23.836Z,2.50
2019-01-09T09:27:56.326Z,2.60
2019-01-09T09:30:28.704Z,2.80
2019-01-09T09:33:00.808Z,2.60
2019-01-09T09:35:33.110Z,2.50
2019-01-09T09:38:05.445Z,2.60
2019-01-09T09:40:37.917Z,2.70
2019-01-09T09:43:10.324Z,2.60
2019-01-09T09:45:42.564Z,2.70
2019-01-09T09:48:14.960Z,2.70
2019-01-09T09:50:47.096Z,2.80
2019-01-09T09:53:19.581Z,2.80
2019-01-09T09:55:55.351Z,2.80
2019-01-09T09:58:27.574Z,2.70
2019-01-09T10:01:00.121Z,2.70
2019-01-09T10:03:32.428Z,2.70
2019-01-09T10:06:04.795Z,2.80
2019-01-09T10:08:37.266Z,2.70
2019-01-09T10:11:09.527Z,2.80
2019-01-09T10:13:42.233Z,2.90
2019-01-09T10:16:14.808Z,3.00
2019-01-09T10:18:47.045Z,2.80
2019-01-09T10:21:19.569Z,2.90
2019-01-09T10:23:52.098Z,2.80
2019-01-09T10:26:24.610Z,2.90
2019-01-09T10:28:56.860Z,3.00
2019-01-09T10:31:29.118Z,2.90
2019-01-09T10:34:01.218Z,3.00
2019-01-09T10:36:34.089Z,2.90
2019-01-09T10:39:08.028Z,3.00
2019-01-09T10:41:40.192Z,3.00
2019-01-09T10:44:18.803Z,3.00
2019-01-09T10:46:46.473Z,3.00
2019-01-09T10:49:19.054Z,3.10
2019-01-09T10:51:51.788Z,3.30
2019-01-09T10:54:24.232Z,3.20
2019-01-09T10:56:56.692Z,3.20
2019-01-09T10:59:29.605Z,3.20
2019-01-09T11:02:03.530Z,3.10
2019-01-09T11:04:35.749Z,3.10
2019-01-09T11:07:09.074Z,3.10
2019-01-09T11:09:41.543Z,3.20
2019-01-09T11:12:13.760Z,3.20
2019-01-09T11:14:46.079Z,3.20
2019-01-09T11:17:18.538Z,3.30
2019-01-09T11:19:50.795Z,3.30
2019-01-09T11:22:23.082Z,3.30
2019-01-09T11:24:56.261Z,3.30
2019-01-09T11:27:28.500Z,3.40
2019-01-09T11:30:01.437Z,3.30
2019-01-09T11:32:34.145Z,3.30
2019-01-09T11:35:10.377Z,3.40
2019-01-09T11:37:42.981Z,3.30
2019-01-09T11:40:16.564Z,3.30
2019-01-09T11:42:49.183Z,3.20
2019-01-09T11:45:21.647Z,3.30
2019-01-09T11:47:54.169Z,3.40
2019-01-09T11:50:26.780Z,3.40
2019-01-09T11:52:59.101Z,3.30
2019-01-09T11:55:31.710Z,3.30
2019-01-09T11:58:04.114Z,3.40
2019-01-09T12:00:36.689Z,3.40
2019-01-09T12:03:08.995Z,3.40
2019-01-09T12:05:41.276Z,3.50
2019-01-09T12:08:13.885Z,3.50
2019-01-09T12:10:46.427Z,3.50
2019-01-09T12:13:18.842Z,3.50
2019-01-09T12:15:51.167Z,3.50
2019-01-09T12:18:23.429Z,3.40
2019-01-09T12:20:55.977Z,3.40
2019-01-09T12:23:28.642Z,3.40
2019-01-09T12:26:01.080Z,3.40
2019-01-09T12:28:33.296Z,3.40
2019-01-09T12:31:05.587Z,3.40
2019-01-09T12:33:37.822Z,3.30
2019-01-09T12:36:10.579Z,3.40
2019-01-09T12:38:42.743Z,3.30
2019-01-09T12:41:15.183Z,3.30
2019-01-09T12:43:47.628Z,3.40
2019-01-09T12:46:20.173Z,3.40
2019-01-09T12:48:52.824Z,3.40
2019-01-09T12:51:25.335Z,3.60
2019-01-09T12:53:58.209Z,3.50
2019-01-09T12:56:30.574Z,3.50
2019-01-09T12:59:02.880Z,3.60
2019-01-09T13:01:35.190Z,3.60
2019-01-09T13:04:07.686Z,3.60
2019-01-09T13:06:40.478Z,3.60
2019-01-09T13:09:12.704Z,3.70
2019-01-09T13:11:45.513Z,3.70
2019-01-09T13:14:20.962Z,3.60
2019-01-09T13:16:53.440Z,3.70
2019-01-09T13:19:25.613Z,3.60
2019-01-09T13:21:58.144Z,3.60
2019-01-09T13:24:30.555Z,3.70
2019-01-09T13:27:02.889Z,3.60
2019-01-09T13:29:35.575Z,3.60
2019-01-09T13:32:07.806Z,3.60
2019-01-09T13:34:40.328Z,3.60
2019-01-09T13:37:13.189Z,3.60
2019-01-09T13:39:45.750Z,3.60
2019-01-09T13:42:18.276Z,3.80
2019-01-09T13:44:50.489Z,3.70
2019-01-09T13:47:25.664Z,3.80
2019-01-09T13:49:57.884Z,3.70
2019-01-09T13:52:30.449Z,3.60
2019-01-09T13:55:03.364Z,3.60
2019-01-09T13:57:35.874Z,3.70
2019-01-09T14:00:11.250Z,3.60
2019-01-09T14:02:43.633Z,3.60
2019-01-09T14:05:16.165Z,3.70
2019-01-09T14:07:48.510Z,3.70
2019-01-09T14:10:23.934Z,3.70
2019-01-09T14:12:56.764Z,3.70
2019-01-09T14:15:29.534Z,3.70
2019-01-09T14:18:02.396Z,3.70
2019-01-09T14:20:34.802Z,3.60
2019-01-09T14:23:07.961Z,3.60
2019-01-09T14:25:40.313Z,3.70
2019-01-09T14:28:12.849Z,3.70
2019-01-09T14:30:45.527Z,3.60
2019-01-09T14:33:17.906Z,3.60
2019-01-09T14:35:49.997Z,3.70
2019-01-09T14:38:26.193Z,3.60
2019-01-09T14:40:59.298Z,3.60
2019-01-09T14:43:31.925Z,3.70
2019-01-09T14:46:08.085Z,3.70
2019-01-09T14:49:07.758Z,3.60
2019-01-09T14:51:43.235Z,3.50
2019-01-09T14:54:14.457Z,3.50
2019-01-09T14:56:57.085Z,3.30
2019-01-09T14:59:29.970Z,3.30
2019-01-09T15:02:02.867Z,3.20
2019-01-09T15:04:54.953Z,3.20
2019-01-09T15:07:27.107Z,3.20
2019-01-09T15:09:59.316Z,3.30
2019-01-09T15:12:38.032Z,3.20
2019-01-09T15:15:14.169Z,3.30
2019-01-09T15:17:47.043Z,3.30
2019-01-09T15:20:19.861Z,3.20
2019-01-09T15:23:03.683Z,3.30
2019-01-09T15:25:35.969Z,3.30
2019-01-09T15:28:08.595Z,3.30
2019-01-09T15:30:40.722Z,3.30
2019-01-09T15:33:12.949Z,3.20
2019-01-09T15:35:45.384Z,3.20
2019-01-09T15:38:19.921Z,3.20
2019-01-09T15:40:52.469Z,3.10
2019-01-09T15:43:24.689Z,3.20
2019-01-09T15:45:57.423Z,3.20
2019-01-09T15:48:29.665Z,3.20
2019-01-09T15:51:02.430Z,3.20
2019-01-09T15:53:35.151Z,3.20
2019-01-09T15:56:07.426Z,3.20
2019-01-09T15:58:39.899Z,3.20
2019-01-09T16:01:12.003Z,3.40
2019-01-09T16:03:44.138Z,3.20
2019-01-09T16:06:16.528Z,3.20
2019-01-09T16:08:49.073Z,3.10
2019-01-09T16:11:21.410Z,3.00
2019-01-09T16:13:53.995Z,3.10
2019-01-09T16:16:26.582Z,3.20
2019-01-09T16:18:59.150Z,3.10
2019-01-09T16:21:31.408Z,3.00
2019-01-09T16:24:03.730Z,3.00
2019-01-09T16:26:36.018Z,3.00
2019-01-09T16:29:08.238Z,3.00
2019-01-09T16:31:41.141Z,3.00
2019-01-09T16:34:13.509Z,3.10
2019-01-09T16:36:45.783Z,3.10
2019-01-09T16:39:18.024Z,3.00
2019-01-09T16:41:50.165Z,3.00
2019-01-09T16:44:22.178Z,2.90
2019-01-09T16:46:54.475Z,2.90
2019-01-09T16:49:28.023Z,3.00
2019-01-09T16:52:01.023Z,3.00
2019-01-09T16:54:33.108Z,3.00
2019-01-09T16:57:05.367Z,3.00
2019-01-09T16:59:37.651Z,3.00
2019-01-09T17:02:09.971Z,3.10
2019-01-09T17:04:42.048Z,3.20
2019-01-09T17:07:14.684Z,3.20
2019-01-09T17:09:46.893Z,3.20
2019-01-09T17:12:19.247Z,3.10
2019-01-09T17:14:51.927Z,3.00
2019-01-09T17:17:27.913Z,3.10
2019-01-09T17:20:00.168Z,3.20
2019-01-09T17:22:33.213Z,3.20
2019-01-09T17:25:05.649Z,3.10
2019-01-09T17:27:38.157Z,3.20
2019-01-09T17:30:22.063Z,3.10
2019-01-09T17:32:56.206Z,3.20
2019-01-09T17:35:28.461Z,3.20
2019-01-09T17:38:01.054Z,3.20
2019-01-09T17:40:40.970Z,3.10
2019-01-09T17:43:07.521Z,3.00
2019-01-09T17:45:39.968Z,3.10
2019-01-09T17:48:12.410Z,2.90
2019-01-09T17:50:44.969Z,2.80
2019-01-09T17:53:17.151Z,2.80
2019-01-09T17:55:49.584Z,2.90
2019-01-09T17:58:22.076Z,3.00
2019-01-09T18:00:54.734Z,2.80
2019-01-09T18:03:26.942Z,2.80
2019-01-09T18:05:59.308Z,2.90
2019-01-09T18:08:31.660Z,3.00
2019-01-09T18:11:04.372Z,3.00
2019-01-09T18:13:36.779Z,2.90
2019-01-09T18:16:08.939Z,3.00
2019-01-09T18:18:41.251Z,3.00
2019-01-09T18:21:13.649Z,2.90
2019-01-09T18:23:45.953Z,3.00
2019-01-09T18:26:18.178Z,3.10
2019-01-09T18:28:50.443Z,3.10
2019-01-09T18:31:45.742Z,3.20
2019-01-09T18:34:31.541Z,3.20
2019-01-09T18:37:57.601Z,3.10
2019-01-09T18:41:21.001Z,3.10
2019-01-09T18:44:28.923Z,3.10
2019-01-09T18:47:19.236Z,2.90
2019-01-09T18:50:29.082Z,2.90
2019-01-09T18:53:23.663Z,3.00
2019-01-09T18:55:56.522Z,3.00
2019-01-09T18:58:28.918Z,3.10
2019-01-09T19:01:01.088Z,3.20
2019-01-09T19:03:33.677Z,3.30
2019-01-09T19:06:05.921Z,3.10
2019-01-09T19:08:38.149Z,3.20
2019-01-09T19:11:10.486Z,3.30
2019-01-09T19:13:42.623Z,3.10
2019-01-09T19:16:14.837Z,3.00
2019-01-09T19:18:47.389Z,3.20
2019-01-09T19:21:19.569Z,3.00
2019-01-09T19:23:52.031Z,3.10
2019-01-09T19:26:27.297Z,3.20
2019-01-09T19:28:59.535Z,3.40
2019-01-09T19:31:32.178Z,3.60
2019-01-09T19:34:04.493Z,3.60
2019-01-09T19:36:37.267Z,3.70
2019-01-09T19:39:09.539Z,3.80
2019-01-09T19:41:41.896Z,3.70
2019-01-09T19:44:14.119Z,3.80
2019-01-09T19:46:46.319Z,3.80
2019-01-09T19:49:18.556Z,3.70
2019-01-09T19:51:50.841Z,3.60
2019-01-09T19:54:23.349Z,3.80
2019-01-09T19:56:55.734Z,3.80
2019-01-09T19:59:28.224Z,3.80
2019-01-09T20:02:00.490Z,3.90
2019-01-09T20:04:32.917Z,3.70
2019-01-09T20:07:05.215Z,3.70
2019-01-09T20:09:37.374Z,3.70
2019-01-09T20:12:10.025Z,3.80
2019-01-09T20:14:42.289Z,3.70
2019-01-09T20:17:14.698Z,3.70
2019-01-09T20:19:47.476Z,3.60
2019-01-09T20:22:19.709Z,3.70
2019-01-09T20:24:52.024Z,3.70
2019-01-09T20:27:24.409Z,3.80
2019-01-09T20:29:56.598Z,4.00
2019-01-09T20:32:29.050Z,4.00
2019-01-09T20:35:01.607Z,4.00
2019-01-09T20:37:33.828Z,3.90
2019-01-09T20:40:08.186Z,3.80
2019-01-09T20:42:40.898Z,3.90
2019-01-09T20:45:14.225Z,3.90
2019-01-09T20:47:46.520Z,3.90
2019-01-09T20:50:21.765Z,4.10
2019-01-09T20:52:54.038Z,4.20
2019-01-09T20:55:26.173Z,4.00
2019-01-09T20:57:58.731Z,4.00
2019-01-09T21:00:31.187Z,4.00
2019-01-09T21:03:06.202Z,4.10
2019-01-09T21:05:41.031Z,4.10
2019-01-09T21:08:13.761Z,3.90
2019-01-09T21:10:46.226Z,4.00
2019-01-09T21:13:18.611Z,4.00
2019-01-09T21:15:50.850Z,3.90
2019-01-09T21:18:23.122Z,3.90
2019-01-09T21:20:55.289Z,4.00
2019-01-09T21:23:27.649Z,4.10
2019-01-09T21:25:59.841Z,4.00
2019-01-09T21:28:32.072Z,4.10
2019-01-09T21:31:04.258Z,4.10
2019-01-09T21:33:36.791Z,4.20
2019-01-09T21:36:09.243Z,4.10
2019-01-09T21:38:41.762Z,3.90
2019-01-09T21:41:13.966Z,4.00
2019-01-09T21:43:46.782Z,4.00
2019-01-09T21:46:18.862Z,3.90
2019-01-09T21:48:51.057Z,3.80
2019-01-09T21:51:23.196Z,3.80
2019-01-09T21:53:55.589Z,3.80
2019-01-09T21:56:28.057Z,3.80
2019-01-09T21:59:00.422Z,3.80
2019-01-09T22:01:32.619Z,3.80
2019-01-09T22:04:05.147Z,3.90
2019-01-09T22:06:37.345Z,3.80
2019-01-09T22:09:09.973Z,3.80
2019-01-09T22:11:42.494Z,4.00
2019-01-09T22:14:14.981Z,3.80
2019-01-09T22:16:47.126Z,3.70
2019-01-09T22:19:19.360Z,3.60
2019-01-09T22:21:52.113Z,3.70
2019-01-09T22:24:24.273Z,3.80
2019-01-09T22:26:56.619Z,3.90
2019-01-09T22:29:28.737Z,3.90
2019-01-09T22:32:00.926Z,3.70
2019-01-09T22:34:32.972Z,3.80
2019-01-09T22:37:05.440Z,3.80
2019-01-09T22:39:37.653Z,3.70
2019-01-09T22:42:11.968Z,3.60
2019-01-09T22:44:44.452Z,3.50
2019-01-09T22:47:16.626Z,3.50
2019-01-09T22:49:49.322Z,3.50
2019-01-09T22:52:21.435Z,3.60
2019-01-09T22:54:54.208Z,3.40
2019-01-09T22:57:26.671Z,3.30
2019-01-09T22:59:59.340Z,3.50
2019-01-09T23:02:32.219Z,3.30
2019-01-09T23:05:04.886Z,3.40
2019-01-09T23:07:37.081Z,3.50
2019-01-09T23:10:09.409Z,3.50
2019-01-09T23:12:41.887Z,3.20
2019-01-09T23:15:14.458Z,3.10
2019-01-09T23:17:46.834Z,3.10
2019-01-09T23:20:18.949Z,3.10
2019-01-09T23:22:51.463Z,3.20
2019-01-09T23:25:24.055Z,3.20
2019-01-09T23:27:56.241Z,3.30
2019-01-09T23:30:28.286Z,3.40
2019-01-09T23:33:00.353Z,3.30
2019-01-09T23:35:32.945Z,3.20
2019-01-09T23:38:05.164Z,3.20
2019-01-09T23:40:37.391Z,3.10
2019-01-09T23:43:09.651Z,3.00
2019-01-09T23:45:43.133Z,3.10
2019-01-09T23:48:15.363Z,3.10
2019-01-09T23:50:47.455Z,3.20
2019-01-09T23:53:20.149Z,3.30
2019-01-09T23:55:52.341Z,3.30
2019-01-09T23:58:24.564Z,3.20
